createdAt,value
2018-12-06T00:00:17.211Z,12.03
2018-12-06T00:02:47.190Z,11.43
2018-12-06T00:05:16.155Z,11.53
2018-12-06T00:07:56.383Z,11.87
2018-12-06T00:10:25.325Z,12.07
2018-12-06T00:12:54.233Z,12.30
2018-12-06T00:15:27.569Z,11.77
2018-12-06T00:17:56.588Z,12.43
2018-12-06T00:20:25.501Z,11.33
2018-12-06T00:22:54.511Z,11.90
2018-12-06T00:25:24.350Z,11.20
2018-12-06T00:27:53.203Z,11.93
2018-12-06T00:30:38.628Z,11.87
2018-12-06T00:33:07.555Z,12.50
2018-12-06T00:35:36.459Z,11.00
2018-12-06T00:38:05.504Z,13.33
2018-12-06T00:40:34.437Z,12.03
2018-12-06T00:43:03.340Z,12.60
2018-12-06T00:45:32.245Z,12.30
2018-12-06T00:48:01.186Z,12.73
2018-12-06T00:50:30.087Z,12.30
2018-12-06T00:52:58.965Z,12.17
2018-12-06T00:55:27.845Z,14.33
2018-12-06T00:57:56.824Z,13.13
2018-12-06T01:00:25.729Z,12.63
2018-12-06T01:02:54.727Z,13.50
2018-12-06T01:05:23.687Z,13.27
2018-12-06T01:07:52.672Z,12.90
2018-12-06T01:10:21.609Z,13.77
2018-12-06T01:12:50.674Z,13.23
2018-12-06T01:15:19.484Z,13.07
2018-12-06T01:17:48.448Z,13.63
2018-12-06T01:20:17.533Z,14.27
2018-12-06T01:22:46.506Z,14.50
2018-12-06T01:25:15.397Z,14.27
2018-12-06T01:27:44.307Z,14.13
2018-12-06T01:30:13.197Z,14.57
2018-12-06T01:32:42.189Z,14.93
2018-12-06T01:35:11.181Z,14.63
2018-12-06T01:37:40.270Z,12.70
2018-12-06T01:40:09.229Z,14.47
2018-12-06T01:42:38.206Z,13.07
2018-12-06T01:45:07.314Z,13.23
2018-12-06T01:47:36.325Z,13.57
2018-12-06T01:50:05.792Z,13.83
2018-12-06T01:52:34.692Z,14.30
2018-12-06T01:55:03.641Z,13.63
2018-12-06T01:57:32.524Z,14.83
2018-12-06T02:00:01.397Z,13.63
2018-12-06T02:02:30.280Z,12.57
2018-12-06T02:04:59.188Z,14.47
2018-12-06T02:07:28.214Z,14.37
2018-12-06T02:09:57.173Z,13.93
2018-12-06T02:12:26.120Z,14.70
2018-12-06T02:14:55.035Z,14.27
2018-12-06T02:17:24.092Z,14.47
2018-12-06T02:19:52.957Z,14.37
2018-12-06T02:22:21.945Z,14.23
2018-12-06T02:24:50.945Z,14.27
2018-12-06T02:27:19.859Z,14.13
2018-12-06T02:29:55.029Z,13.87
2018-12-06T02:32:24.278Z,14.07
2018-12-06T02:34:53.178Z,14.17
2018-12-06T02:37:22.062Z,13.03
2018-12-06T02:39:50.900Z,14.03
2018-12-06T02:42:19.834Z,13.60
2018-12-06T02:44:48.835Z,13.43
2018-12-06T02:47:17.673Z,14.40
2018-12-06T02:49:46.679Z,14.63
2018-12-06T02:52:15.742Z,14.37
2018-12-06T02:54:44.638Z,14.30
2018-12-06T02:57:13.820Z,13.73
2018-12-06T02:59:42.733Z,14.13
2018-12-06T03:02:11.691Z,13.07
2018-12-06T03:04:40.640Z,13.37
2018-12-06T03:07:09.527Z,13.93
2018-12-06T03:09:38.517Z,13.37
2018-12-06T03:12:07.517Z,12.73
2018-12-06T03:14:36.404Z,13.23
2018-12-06T03:17:06.629Z,13.17
2018-12-06T03:19:35.473Z,13.90
2018-12-06T03:22:04.416Z,14.13
2018-12-06T03:24:33.364Z,13.43
2018-12-06T03:27:02.329Z,13.37
2018-12-06T03:29:31.417Z,13.27
2018-12-06T03:32:00.272Z,13.30
2018-12-06T03:34:29.206Z,13.17
2018-12-06T03:36:58.356Z,13.27
2018-12-06T03:39:27.865Z,13.53
2018-12-06T03:41:56.829Z,13.33
2018-12-06T03:44:25.884Z,13.50
2018-12-06T03:46:55.000Z,13.53
2018-12-06T03:49:23.866Z,13.90
2018-12-06T03:51:52.812Z,14.23
2018-12-06T03:54:21.671Z,13.40
2018-12-06T03:56:50.572Z,13.73
2018-12-06T03:59:19.615Z,13.90
2018-12-06T04:01:48.551Z,13.77
2018-12-06T04:04:17.512Z,13.00
2018-12-06T04:06:46.375Z,14.67
2018-12-06T04:09:15.268Z,13.73
2018-12-06T04:11:44.232Z,14.03
2018-12-06T04:14:13.142Z,14.00
2018-12-06T04:16:41.992Z,14.43
2018-12-06T04:19:10.983Z,14.27
2018-12-06T04:21:39.900Z,14.13
2018-12-06T04:24:08.873Z,13.47
2018-12-06T04:26:37.764Z,13.93
2018-12-06T04:29:06.638Z,13.97
2018-12-06T04:31:37.289Z,14.27
2018-12-06T04:34:08.242Z,14.33
2018-12-06T04:36:37.176Z,15.37
2018-12-06T04:39:07.764Z,15.37
2018-12-06T04:41:36.680Z,14.50
2018-12-06T04:44:05.705Z,14.17
2018-12-06T04:46:34.631Z,15.07
2018-12-06T04:49:03.594Z,15.60
2018-12-06T04:51:32.569Z,15.13
2018-12-06T04:54:01.514Z,14.50
2018-12-06T04:56:30.445Z,15.13
2018-12-06T04:58:59.400Z,16.37
2018-12-06T05:01:28.316Z,16.23
2018-12-06T05:03:57.272Z,15.97
2018-12-06T05:06:26.215Z,15.73
2018-12-06T05:08:55.101Z,17.13
2018-12-06T05:11:24.040Z,17.20
2018-12-06T05:13:53.176Z,17.90
2018-12-06T05:16:22.074Z,18.07
2018-12-06T05:18:51.094Z,16.93
2018-12-06T05:21:19.932Z,17.53
2018-12-06T05:23:49.053Z,18.37
2018-12-06T05:26:18.999Z,18.43
2018-12-06T05:28:47.909Z,17.90
2018-12-06T05:31:16.750Z,18.27
2018-12-06T05:33:45.697Z,17.10
2018-12-06T05:36:14.644Z,17.80
2018-12-06T05:38:43.634Z,18.67
2018-12-06T05:41:12.670Z,19.50
2018-12-06T05:43:41.770Z,19.83
2018-12-06T05:46:10.719Z,20.83
2018-12-06T05:48:39.611Z,20.37
2018-12-06T05:51:08.476Z,22.53
2018-12-06T05:53:37.422Z,23.00
2018-12-06T05:56:06.327Z,22.97
2018-12-06T05:58:35.281Z,23.60
2018-12-06T06:01:04.265Z,24.87
2018-12-06T06:03:33.385Z,23.37
2018-12-06T06:06:02.411Z,24.40
2018-12-06T06:08:31.346Z,24.37
2018-12-06T06:11:00.251Z,24.83
2018-12-06T06:13:30.173Z,25.00
2018-12-06T06:15:59.124Z,23.37
2018-12-06T06:18:28.045Z,24.27
2018-12-06T06:20:57.006Z,24.43
2018-12-06T06:23:25.908Z,23.67
2018-12-06T06:25:54.886Z,25.07
2018-12-06T06:28:23.932Z,24.90
2018-12-06T06:30:52.851Z,24.20
2018-12-06T06:33:21.794Z,25.70
2018-12-06T06:35:51.757Z,26.73
2018-12-06T06:38:20.746Z,25.87
2018-12-06T06:40:49.632Z,25.83
2018-12-06T06:43:18.568Z,28.00
2018-12-06T06:45:47.553Z,26.80
2018-12-06T06:48:16.575Z,28.40
2018-12-06T06:50:45.415Z,25.87
2018-12-06T06:53:14.342Z,28.07
2018-12-06T06:55:43.235Z,27.63
2018-12-06T06:58:12.196Z,26.73
2018-12-06T07:00:41.523Z,28.03
2018-12-06T07:03:10.417Z,27.17
2018-12-06T07:05:39.325Z,27.43
2018-12-06T07:08:08.331Z,27.97
2018-12-06T07:10:37.241Z,25.87
2018-12-06T07:13:06.131Z,27.47
2018-12-06T07:15:35.186Z,27.20
2018-12-06T07:18:04.177Z,27.20
2018-12-06T07:20:33.121Z,27.87
2018-12-06T07:23:02.121Z,26.13
2018-12-06T07:25:31.000Z,25.30
2018-12-06T07:27:59.957Z,24.17
2018-12-06T07:30:28.877Z,23.67
2018-12-06T07:32:57.849Z,24.47
2018-12-06T07:35:26.674Z,24.93
2018-12-06T07:37:55.596Z,25.97
2018-12-06T07:40:24.537Z,23.73
2018-12-06T07:42:53.642Z,26.27
2018-12-06T07:45:22.602Z,24.97
2018-12-06T07:47:52.486Z,25.60
2018-12-06T07:50:21.480Z,25.87
2018-12-06T07:52:50.442Z,25.23
2018-12-06T07:55:19.359Z,26.43
2018-12-06T07:57:48.238Z,27.03
2018-12-06T08:00:17.221Z,28.50
2018-12-06T08:02:46.410Z,30.23
2018-12-06T08:05:15.336Z,27.97
2018-12-06T08:07:44.232Z,31.33
2018-12-06T08:10:13.159Z,29.43
2018-12-06T08:12:43.201Z,30.40
2018-12-06T08:15:12.185Z,29.60
2018-12-06T08:17:41.205Z,29.07
2018-12-06T08:20:10.141Z,29.27
2018-12-06T08:22:39.105Z,29.50
2018-12-06T08:25:08.109Z,29.03
2018-12-06T08:27:36.975Z,30.63
2018-12-06T08:30:06.227Z,29.07
2018-12-06T08:32:35.133Z,30.03
2018-12-06T08:35:03.999Z,29.43
2018-12-06T08:37:34.535Z,28.23
2018-12-06T08:40:05.681Z,28.43
2018-12-06T08:42:34.788Z,29.47
2018-12-06T08:45:03.826Z,28.17
2018-12-06T08:47:32.818Z,28.93
2018-12-06T08:50:01.702Z,28.50
2018-12-06T08:52:30.633Z,27.90
2018-12-06T08:54:59.546Z,29.03
2018-12-06T08:57:28.522Z,29.67
2018-12-06T08:59:57.455Z,28.53
2018-12-06T09:02:26.332Z,28.00
2018-12-06T09:04:55.233Z,31.23
2018-12-06T09:07:24.076Z,29.07
2018-12-06T09:09:53.151Z,29.87
2018-12-06T09:12:22.089Z,31.97
2018-12-06T09:14:51.048Z,30.77
2018-12-06T09:17:20.004Z,31.40
2018-12-06T09:19:49.504Z,30.57
2018-12-06T09:22:18.513Z,32.27
2018-12-06T09:24:47.583Z,31.03
2018-12-06T09:27:16.518Z,31.43
2018-12-06T09:29:45.504Z,29.93
2018-12-06T09:32:14.351Z,30.57
2018-12-06T09:34:43.315Z,30.47
2018-12-06T09:37:12.236Z,31.03
2018-12-06T09:39:41.346Z,28.83
2018-12-06T09:42:10.278Z,31.40
2018-12-06T09:44:39.219Z,30.20
2018-12-06T09:47:09.051Z,32.63
2018-12-06T09:49:37.986Z,32.13
2018-12-06T09:52:06.856Z,31.60
2018-12-06T09:54:35.733Z,32.20
2018-12-06T09:57:04.606Z,32.93
2018-12-06T10:00:13.980Z,34.80
2018-12-06T10:02:43.122Z,32.50
2018-12-06T10:05:12.109Z,35.00
2018-12-06T10:07:41.388Z,32.83
2018-12-06T10:10:10.373Z,35.13
2018-12-06T10:12:43.601Z,35.20
2018-12-06T10:15:14.024Z,34.67
2018-12-06T10:17:44.158Z,34.23
2018-12-06T10:20:13.301Z,35.00
2018-12-06T10:22:43.159Z,36.07
2018-12-06T10:25:12.097Z,36.13
2018-12-06T10:27:41.047Z,36.40
2018-12-06T10:30:10.165Z,34.20
2018-12-06T10:32:39.102Z,35.13
2018-12-06T10:35:08.100Z,34.13
2018-12-06T10:37:37.532Z,35.27
2018-12-06T10:40:07.093Z,37.50
2018-12-06T10:42:36.316Z,33.97
2018-12-06T10:45:06.333Z,32.47
2018-12-06T10:47:35.343Z,31.83
2018-12-06T10:50:04.963Z,31.43
2018-12-06T10:52:33.845Z,33.17
2018-12-06T10:55:02.981Z,33.03
2018-12-06T10:57:31.971Z,33.03
2018-12-06T11:00:01.371Z,31.50
2018-12-06T11:02:48.405Z,32.63
2018-12-06T11:05:17.949Z,31.87
2018-12-06T11:07:46.953Z,31.60
2018-12-06T11:10:15.882Z,31.10
2018-12-06T11:12:45.099Z,33.83
2018-12-06T11:15:14.139Z,35.17
2018-12-06T11:17:43.099Z,35.03
2018-12-06T11:20:12.259Z,37.47
2018-12-06T11:22:41.115Z,36.37
2018-12-06T11:25:10.061Z,34.03
2018-12-06T11:27:38.979Z,33.20
2018-12-06T11:30:07.999Z,32.77
2018-12-06T11:32:36.940Z,34.53
2018-12-06T11:35:05.923Z,33.43
2018-12-06T11:37:34.947Z,32.70
2018-12-06T11:40:04.153Z,33.10
2018-12-06T11:42:33.104Z,31.70
2018-12-06T11:45:02.112Z,31.37
2018-12-06T11:47:31.053Z,31.20
2018-12-06T11:50:00.148Z,31.07
2018-12-06T11:52:29.049Z,29.67
2018-12-06T11:54:58.003Z,29.37
2018-12-06T11:57:26.899Z,30.90
2018-12-06T11:59:55.847Z,28.70
2018-12-06T12:02:24.839Z,27.90
2018-12-06T12:04:53.862Z,27.43
2018-12-06T12:07:22.756Z,25.83
2018-12-06T12:09:51.663Z,25.37
2018-12-06T12:12:20.610Z,25.93
2018-12-06T12:14:51.546Z,24.30
2018-12-06T12:17:20.596Z,24.90
2018-12-06T12:19:49.474Z,24.77
2018-12-06T12:22:18.383Z,23.50
2018-12-06T12:24:47.333Z,23.43
2018-12-06T12:27:16.383Z,22.20
2018-12-06T12:29:45.385Z,23.00
2018-12-06T12:32:14.312Z,23.57
2018-12-06T12:34:43.183Z,23.43
2018-12-06T12:37:12.344Z,22.23
2018-12-06T12:39:41.276Z,22.17
2018-12-06T12:42:10.280Z,22.13
2018-12-06T12:44:39.314Z,22.17
2018-12-06T12:47:08.305Z,21.13
2018-12-06T12:49:37.259Z,21.83
2018-12-06T12:52:06.183Z,22.50
2018-12-06T12:54:35.290Z,20.50
2018-12-06T12:57:04.273Z,21.20
2018-12-06T12:59:33.252Z,24.33
2018-12-06T13:02:02.228Z,27.33
2018-12-06T13:04:31.162Z,26.03
2018-12-06T13:07:09.322Z,28.30
2018-12-06T13:09:38.448Z,26.07
2018-12-06T13:12:07.380Z,26.53
2018-12-06T13:14:36.394Z,26.77
2018-12-06T13:17:05.640Z,26.37
2018-12-06T13:19:34.650Z,27.93
2018-12-06T13:22:03.668Z,28.10
2018-12-06T13:24:32.549Z,28.53
2018-12-06T13:27:01.598Z,28.37
2018-12-06T13:29:30.523Z,28.30
2018-12-06T13:31:59.442Z,29.87
2018-12-06T13:34:28.653Z,30.23
2018-12-06T13:36:57.702Z,28.70
2018-12-06T13:39:26.638Z,28.57
2018-12-06T13:41:55.545Z,27.83
2018-12-06T13:44:24.467Z,26.83
2018-12-06T13:46:53.359Z,28.00
2018-12-06T13:49:22.371Z,28.63
2018-12-06T13:51:51.269Z,28.67
2018-12-06T13:54:26.930Z,27.33
2018-12-06T13:56:54.150Z,28.57
2018-12-06T13:59:23.026Z,28.77
2018-12-06T14:01:51.945Z,27.60
2018-12-06T14:04:20.873Z,28.63
2018-12-06T14:06:49.733Z,28.17
2018-12-06T14:09:18.850Z,27.93
2018-12-06T14:11:47.877Z,29.67
2018-12-06T14:14:16.820Z,28.57
2018-12-06T14:16:45.704Z,27.27
2018-12-06T14:19:14.573Z,28.07
2018-12-06T14:21:43.444Z,29.80
2018-12-06T14:24:12.307Z,28.20
2018-12-06T14:26:41.277Z,28.87
2018-12-06T14:29:10.145Z,28.30
2018-12-06T14:31:39.149Z,28.47
2018-12-06T14:34:08.056Z,28.27
2018-12-06T14:36:36.991Z,27.33
2018-12-06T14:39:08.639Z,26.63
2018-12-06T14:41:37.790Z,27.87
2018-12-06T14:44:06.734Z,27.27
2018-12-06T14:46:35.656Z,28.07
2018-12-06T14:49:04.570Z,26.30
2018-12-06T14:51:33.632Z,27.33
2018-12-06T14:54:02.548Z,29.97
2018-12-06T14:56:31.480Z,29.17
2018-12-06T14:59:00.375Z,27.03
2018-12-06T15:01:29.270Z,27.43
2018-12-06T15:03:58.282Z,25.37
2018-12-06T15:06:27.229Z,25.70
2018-12-06T15:08:56.143Z,25.13
2018-12-06T15:11:25.167Z,24.93
2018-12-06T15:13:54.142Z,24.47
2018-12-06T15:16:23.113Z,24.17
2018-12-06T15:18:52.084Z,23.33
2018-12-06T15:21:21.006Z,25.50
2018-12-06T15:23:49.950Z,24.70
2018-12-06T15:26:18.825Z,24.33
2018-12-06T15:28:47.787Z,25.13
2018-12-06T15:31:16.733Z,24.63
2018-12-06T15:33:45.678Z,23.23
2018-12-06T15:36:14.764Z,23.60
2018-12-06T15:38:43.660Z,24.20
2018-12-06T15:41:12.620Z,26.40
2018-12-06T15:43:41.492Z,26.30
2018-12-06T15:46:10.473Z,25.37
2018-12-06T15:48:39.381Z,26.90
2018-12-06T15:51:08.408Z,27.33
2018-12-06T15:53:37.461Z,26.70
2018-12-06T15:56:06.340Z,27.67
2018-12-06T15:58:35.570Z,29.47
2018-12-06T16:01:04.771Z,28.87
2018-12-06T16:03:33.739Z,28.83
2018-12-06T16:06:02.980Z,30.00
2018-12-06T16:08:31.862Z,29.47
2018-12-06T16:11:00.899Z,29.53
2018-12-06T16:13:29.875Z,28.27
2018-12-06T16:15:59.463Z,24.93
2018-12-06T16:18:28.354Z,23.77
2018-12-06T16:20:57.305Z,21.33
2018-12-06T16:23:26.764Z,19.30
2018-12-06T16:25:55.979Z,17.57
2018-12-06T16:28:24.913Z,19.00
2018-12-06T16:30:54.031Z,17.07
2018-12-06T16:33:23.024Z,18.93
2018-12-06T16:35:51.982Z,18.53
2018-12-06T16:38:21.055Z,17.47
2018-12-06T16:40:50.010Z,16.97
2018-12-06T16:43:18.904Z,17.27
2018-12-06T16:45:47.826Z,16.97
2018-12-06T16:48:16.860Z,16.27
2018-12-06T16:50:45.903Z,16.77
2018-12-06T16:53:14.919Z,17.73
2018-12-06T16:55:43.986Z,15.47
2018-12-06T16:58:12.932Z,16.87
2018-12-06T17:00:42.027Z,15.80
2018-12-06T17:03:11.548Z,15.33
2018-12-06T17:05:40.842Z,16.67
2018-12-06T17:08:10.099Z,15.40
2018-12-06T17:10:39.286Z,14.73
2018-12-06T17:13:08.673Z,15.90
2018-12-06T17:15:37.714Z,15.77
2018-12-06T17:18:06.793Z,15.63
2018-12-06T17:20:36.053Z,15.93
2018-12-06T17:23:05.181Z,15.77
2018-12-06T17:25:35.059Z,15.83
2018-12-06T17:28:04.760Z,16.07
2018-12-06T17:30:33.721Z,16.20
2018-12-06T17:33:02.658Z,17.07
2018-12-06T17:35:31.818Z,15.93
2018-12-06T17:38:01.042Z,14.97
2018-12-06T17:40:30.219Z,15.13
2018-12-06T17:42:59.682Z,15.93
2018-12-06T17:45:28.946Z,14.40
2018-12-06T17:47:58.010Z,14.60
2018-12-06T17:50:26.899Z,15.27
2018-12-06T17:52:55.919Z,15.60
2018-12-06T17:55:25.152Z,14.00
2018-12-06T17:57:54.213Z,14.13
2018-12-06T18:00:23.593Z,14.70
2018-12-06T18:02:52.714Z,13.93
2018-12-06T18:05:21.863Z,13.70
2018-12-06T18:07:51.082Z,14.33
2018-12-06T18:10:20.381Z,13.57
2018-12-06T18:12:49.457Z,13.80
2018-12-06T18:15:19.000Z,14.40
2018-12-06T18:17:48.117Z,12.73
2018-12-06T18:20:17.318Z,12.67
2018-12-06T18:22:46.232Z,13.70
2018-12-06T18:25:15.299Z,12.13
2018-12-06T18:27:44.266Z,13.60
2018-12-06T18:30:13.233Z,14.13
2018-12-06T18:32:42.119Z,14.00
2018-12-06T18:35:11.062Z,14.13
2018-12-06T18:37:39.981Z,13.70
2018-12-06T18:40:08.903Z,13.07
2018-12-06T18:42:38.135Z,13.70
2018-12-06T18:45:07.400Z,13.60
2018-12-06T18:47:36.426Z,18.17
2018-12-06T18:50:05.533Z,17.43
2018-12-06T18:52:34.703Z,16.47
2018-12-06T18:55:03.698Z,14.77
2018-12-06T18:57:32.727Z,14.43
2018-12-06T19:00:02.901Z,12.73
2018-12-06T19:02:31.853Z,13.00
2018-12-06T19:05:07.401Z,13.63
2018-12-06T19:07:36.261Z,12.87
2018-12-06T19:10:05.505Z,11.77
2018-12-06T19:12:34.811Z,12.50
2018-12-06T19:15:04.013Z,12.17
2018-12-06T19:17:32.926Z,12.27
2018-12-06T19:20:01.915Z,11.50
2018-12-06T19:22:31.245Z,11.97
2018-12-06T19:25:00.424Z,11.60
2018-12-06T19:27:29.747Z,11.33
2018-12-06T19:29:58.696Z,11.63
2018-12-06T19:32:27.887Z,10.57
2018-12-06T19:34:56.909Z,12.13
2018-12-06T19:37:26.079Z,11.43
2018-12-06T19:39:54.944Z,11.50
2018-12-06T19:42:23.900Z,11.90
2018-12-06T19:44:52.758Z,11.30
2018-12-06T19:47:21.713Z,11.33
2018-12-06T19:49:50.688Z,11.23
2018-12-06T19:52:19.636Z,12.00
2018-12-06T19:54:48.874Z,11.43
2018-12-06T19:57:17.903Z,11.33
2018-12-06T19:59:47.071Z,11.60
2018-12-06T20:02:16.243Z,10.77
2018-12-06T20:04:45.358Z,10.70
2018-12-06T20:07:15.564Z,11.17
2018-12-06T20:09:44.744Z,10.43
2018-12-06T20:12:14.036Z,10.20
2018-12-06T20:14:43.267Z,10.13
2018-12-06T20:17:12.306Z,10.47
2018-12-06T20:19:41.594Z,9.93
2018-12-06T20:22:10.513Z,10.40
2018-12-06T20:24:39.748Z,9.03
2018-12-06T20:27:08.980Z,8.77
2018-12-06T20:29:38.184Z,9.53
2018-12-06T20:32:14.448Z,9.80
2018-12-06T20:34:38.559Z,8.23
2018-12-06T20:37:07.707Z,10.23
2018-12-06T20:39:36.749Z,8.40
2018-12-06T20:42:05.717Z,8.87
2018-12-06T20:44:34.719Z,8.67
2018-12-06T20:47:03.658Z,7.97
2018-12-06T20:49:32.516Z,8.40
2018-12-06T20:52:01.459Z,8.33
2018-12-06T20:54:30.503Z,8.57
2018-12-06T20:56:59.489Z,9.40
2018-12-06T20:59:28.514Z,9.27
2018-12-06T21:01:57.648Z,8.77
2018-12-06T21:04:26.550Z,8.63
2018-12-06T21:06:55.807Z,8.47
2018-12-06T21:09:24.763Z,8.43
2018-12-06T21:11:53.716Z,9.80
2018-12-06T21:14:22.721Z,9.03
2018-12-06T21:16:51.733Z,9.23
2018-12-06T21:19:20.649Z,10.50
2018-12-06T21:21:49.951Z,9.27
2018-12-06T21:24:18.851Z,9.23
2018-12-06T21:26:47.720Z,9.33
2018-12-06T21:29:16.632Z,8.47
2018-12-06T21:31:45.819Z,9.00
2018-12-06T21:34:14.868Z,8.60
2018-12-06T21:36:44.829Z,8.50
2018-12-06T21:39:13.892Z,8.37
2018-12-06T21:41:42.865Z,8.00
2018-12-06T21:44:11.830Z,8.00
2018-12-06T21:46:40.853Z,7.50
2018-12-06T21:49:09.760Z,7.27
2018-12-06T21:51:38.746Z,7.80
2018-12-06T21:54:07.679Z,7.83
2018-12-06T21:56:36.628Z,8.20
2018-12-06T21:59:06.091Z,7.47
2018-12-06T22:01:35.087Z,6.90
2018-12-06T22:04:04.030Z,7.30
2018-12-06T22:06:32.969Z,6.70
2018-12-06T22:09:02.177Z,6.87
2018-12-06T22:11:32.425Z,7.20
2018-12-06T22:14:01.421Z,8.10
2018-12-06T22:16:30.402Z,6.87
2018-12-06T22:19:00.504Z,6.80
2018-12-06T22:21:29.510Z,6.83
2018-12-06T22:23:58.473Z,7.13
2018-12-06T22:26:27.541Z,6.73
2018-12-06T22:28:56.522Z,6.60
2018-12-06T22:31:25.628Z,6.53
2018-12-06T22:33:54.997Z,6.40
2018-12-06T22:36:23.973Z,5.77
2018-12-06T22:38:52.831Z,7.23
2018-12-06T22:41:21.847Z,5.90
2018-12-06T22:43:51.015Z,6.87
2018-12-06T22:46:20.108Z,5.57
2018-12-06T22:48:49.127Z,5.63
2018-12-06T22:51:24.163Z,6.47
2018-12-06T22:53:49.562Z,6.40
2018-12-06T22:56:18.470Z,6.67
2018-12-06T22:58:47.401Z,6.83
2018-12-06T23:01:18.379Z,6.67
2018-12-06T23:03:47.391Z,6.77
2018-12-06T23:06:17.111Z,7.20
2018-12-06T23:08:47.254Z,6.80
2018-12-06T23:11:16.348Z,6.93
2018-12-06T23:13:45.363Z,7.27
2018-12-06T23:16:14.869Z,6.97
2018-12-06T23:18:43.858Z,6.47
2018-12-06T23:21:12.807Z,6.60
2018-12-06T23:23:41.712Z,6.07
2018-12-06T23:26:10.596Z,6.13
2018-12-06T23:28:39.525Z,6.47
2018-12-06T23:31:08.537Z,5.93
2018-12-06T23:33:37.523Z,6.17
2018-12-06T23:36:06.491Z,6.40
2018-12-06T23:38:35.419Z,5.70
2018-12-06T23:41:04.292Z,5.90
2018-12-06T23:43:33.367Z,5.53
2018-12-06T23:46:02.323Z,5.87
2018-12-06T23:48:31.267Z,6.00
2018-12-06T23:51:11.667Z,5.77
2018-12-06T23:53:40.718Z,5.57
2018-12-06T23:56:09.750Z,5.77
2018-12-06T23:58:38.682Z,5.33
